sensor_id;sensor_type;location;lat;lon;timestamp;temperature;humidity
12452;DHT22;6291;48.924;12.204;2022-08-01T00:04:39;20.30;77.50
12452;DHT22;6291;48.924;12.204;2022-08-01T00:09:44;20.40;77.30
12452;DHT22;6291;48.924;12.204;2022-08-01T00:14:47;20.40;78.10
12452;DHT22;6291;48.924;12.204;2022-08-01T00:19:51;20.50;77.50
12452;DHT22;6291;48.924;12.204;2022-08-01T00:24:55;20.50;78.00
12452;DHT22;6291;48.924;12.204;2022-08-01T00:29:59;20.40;78.70
12452;DHT22;6291;48.924;12.204;2022-08-01T00:35:15;20.30;79.40
12452;DHT22;6291;48.924;12.204;2022-08-01T00:40:19;20.40;79.50
12452;DHT22;6291;48.924;12.204;2022-08-01T00:45:23;20.40;80.10
12452;DHT22;6291;48.924;12.204;2022-08-01T00:50:28;20.40;79.80
12452;DHT22;6291;48.924;12.204;2022-08-01T00:55:33;20.40;78.80
12452;DHT22;6291;48.924;12.204;2022-08-01T01:00:37;20.30;79.80
12452;DHT22;6291;48.924;12.204;2022-08-01T01:06:02;20.10;80.20
12452;DHT22;6291;48.924;12.204;2022-08-01T01:11:13;19.90;81.10
12452;DHT22;6291;48.924;12.204;2022-08-01T01:16:18;20.40;82.40
12452;DHT22;6291;48.924;12.204;2022-08-01T01:21:46;19.70;82.20
12452;DHT22;6291;48.924;12.204;2022-08-01T01:26:55;19.40;82.90
12452;DHT22;6291;48.924;12.204;2022-08-01T01:32:05;19.50;83.70
12452;DHT22;6291;48.924;12.204;2022-08-01T01:37:14;19.60;83.50
12452;DHT22;6291;48.924;12.204;2022-08-01T01:42:19;21.30;85.10
12452;DHT22;6291;48.924;12.204;2022-08-01T01:47:24;19.60;85.00
12452;DHT22;6291;48.924;12.204;2022-08-01T01:52:29;19.50;85.40
12452;DHT22;6291;48.924;12.204;2022-08-01T01:57:37;19.40;84.90
12452;DHT22;6291;48.924;12.204;2022-08-01T02:02:43;19.40;85.90
12452;DHT22;6291;48.924;12.204;2022-08-01T02:07:49;19.30;86.60
12452;DHT22;6291;48.924;12.204;2022-08-01T02:13:02;19.20;86.20
12452;DHT22;6291;48.924;12.204;2022-08-01T02:18:08;19.20;86.80
12452;DHT22;6291;48.924;12.204;2022-08-01T02:23:13;19.40;87.80
12452;DHT22;6291;48.924;12.204;2022-08-01T02:28:20;19.50;87.30
12452;DHT22;6291;48.924;12.204;2022-08-01T02:33:34;19.70;87.00
12452;DHT22;6291;48.924;12.204;2022-08-01T02:38:43;19.60;87.60
12452;DHT22;6291;48.924;12.204;2022-08-01T02:43:50;19.60;88.20
12452;DHT22;6291;48.924;12.204;2022-08-01T02:48:58;19.70;88.40
12452;DHT22;6291;48.924;12.204;2022-08-01T02:54:05;19.80;87.70
12452;DHT22;6291;48.924;12.204;2022-08-01T02:59:13;19.80;87.50
12452;DHT22;6291;48.924;12.204;2022-08-01T03:04:24;19.80;87.90
12452;DHT22;6291;48.924;12.204;2022-08-01T03:09:30;19.70;88.00
12452;DHT22;6291;48.924;12.204;2022-08-01T03:14:36;19.60;87.90
12452;DHT22;6291;48.924;12.204;2022-08-01T03:19:44;19.60;87.90
12452;DHT22;6291;48.924;12.204;2022-08-01T03:24:51;19.50;88.40
12452;DHT22;6291;48.924;12.204;2022-08-01T03:29:56;19.50;88.30
12452;DHT22;6291;48.924;12.204;2022-08-01T03:35:03;19.50;87.70
12452;DHT22;6291;48.924;12.204;2022-08-01T03:40:10;19.40;88.00
12452;DHT22;6291;48.924;12.204;2022-08-01T03:45:20;19.40;88.30
12452;DHT22;6291;48.924;12.204;2022-08-01T03:50:27;19.30;89.30
12452;DHT22;6291;48.924;12.204;2022-08-01T03:55:32;19.10;90.10
12452;DHT22;6291;48.924;12.204;2022-08-01T04:00:36;19.00;90.60
12452;DHT22;6291;48.924;12.204;2022-08-01T04:05:43;18.90;90.70
12452;DHT22;6291;48.924;12.204;2022-08-01T04:10:47;18.90;90.60
12452;DHT22;6291;48.924;12.204;2022-08-01T04:15:51;19.00;90.30
12452;DHT22;6291;48.924;12.204;2022-08-01T04:20:55;19.00;90.20
12452;DHT22;6291;48.924;12.204;2022-08-01T04:26:02;19.00;90.20
12452;DHT22;6291;48.924;12.204;2022-08-01T04:31:08;19.10;89.40
12452;DHT22;6291;48.924;12.204;2022-08-01T04:36:16;19.10;89.50
12452;DHT22;6291;48.924;12.204;2022-08-01T04:41:21;19.20;89.30
12452;DHT22;6291;48.924;12.204;2022-08-01T04:46:26;19.20;89.90
12452;DHT22;6291;48.924;12.204;2022-08-01T04:51:31;19.30;89.20
12452;DHT22;6291;48.924;12.204;2022-08-01T04:56:35;19.40;88.50
12452;DHT22;6291;48.924;12.204;2022-08-01T05:01:38;19.50;88.50
12452;DHT22;6291;48.924;12.204;2022-08-01T05:06:43;19.70;88.40
12452;DHT22;6291;48.924;12.204;2022-08-01T05:11:46;19.80;88.40
12452;DHT22;6291;48.924;12.204;2022-08-01T05:16:50;19.90;88.10
12452;DHT22;6291;48.924;12.204;2022-08-01T05:21:54;19.60;88.30
12452;DHT22;6291;48.924;12.204;2022-08-01T05:27:03;19.80;88.60
12452;DHT22;6291;48.924;12.204;2022-08-01T05:32:08;19.80;89.00
12452;DHT22;6291;48.924;12.204;2022-08-01T05:37:13;19.90;88.90
12452;DHT22;6291;48.924;12.204;2022-08-01T05:42:16;19.90;89.20
12452;DHT22;6291;48.924;12.204;2022-08-01T05:47:19;20.00;88.90
12452;DHT22;6291;48.924;12.204;2022-08-01T05:52:24;20.10;89.00
12452;DHT22;6291;48.924;12.204;2022-08-01T05:57:27;20.40;87.40
12452;DHT22;6291;48.924;12.204;2022-08-01T06:02:31;20.60;87.40
12452;DHT22;6291;48.924;12.204;2022-08-01T06:07:36;20.60;87.20
12452;DHT22;6291;48.924;12.204;2022-08-01T06:12:40;20.70;87.30
12452;DHT22;6291;48.924;12.204;2022-08-01T06:17:44;20.90;87.70
12452;DHT22;6291;48.924;12.204;2022-08-01T06:22:49;21.30;88.60
12452;DHT22;6291;48.924;12.204;2022-08-01T06:27:53;21.80;86.50
12452;DHT22;6291;48.924;12.204;2022-08-01T06:32:56;22.60;83.50
12452;DHT22;6291;48.924;12.204;2022-08-01T06:38:02;23.20;80.30
12452;DHT22;6291;48.924;12.204;2022-08-01T06:43:05;23.20;80.20
12452;DHT22;6291;48.924;12.204;2022-08-01T06:48:08;23.70;77.10
12452;DHT22;6291;48.924;12.204;2022-08-01T06:53:13;23.50;78.70
12452;DHT22;6291;48.924;12.204;2022-08-01T06:58:16;23.80;78.30
12452;DHT22;6291;48.924;12.204;2022-08-01T07:03:20;23.90;77.90
12452;DHT22;6291;48.924;12.204;2022-08-01T07:08:25;23.90;78.20
12452;DHT22;6291;48.924;12.204;2022-08-01T07:13:29;24.30;77.00
12452;DHT22;6291;48.924;12.204;2022-08-01T07:18:45;24.30;77.00
12452;DHT22;6291;48.924;12.204;2022-08-01T07:23:49;24.90;75.30
12452;DHT22;6291;48.924;12.204;2022-08-01T07:28:56;24.70;74.60
12452;DHT22;6291;48.924;12.204;2022-08-01T07:34:00;25.10;74.10
12452;DHT22;6291;48.924;12.204;2022-08-01T07:39:05;24.60;76.10
12452;DHT22;6291;48.924;12.204;2022-08-01T07:44:09;28.20;74.10
12452;DHT22;6291;48.924;12.204;2022-08-01T07:49:16;27.10;69.70
12452;DHT22;6291;48.924;12.204;2022-08-01T07:54:21;25.90;71.20
12452;DHT22;6291;48.924;12.204;2022-08-01T07:59:35;24.80;74.50
12452;DHT22;6291;48.924;12.204;2022-08-01T08:04:38;25.20;73.70
12452;DHT22;6291;48.924;12.204;2022-08-01T08:09:49;25.10;74.10
12452;DHT22;6291;48.924;12.204;2022-08-01T08:14:53;25.30;72.80
12452;DHT22;6291;48.924;12.204;2022-08-01T08:19:58;25.40;72.60
12452;DHT22;6291;48.924;12.204;2022-08-01T08:25:03;25.40;74.60
12452;DHT22;6291;48.924;12.204;2022-08-01T08:30:09;25.00;73.80
12452;DHT22;6291;48.924;12.204;2022-08-01T08:35:13;25.20;73.50
12452;DHT22;6291;48.924;12.204;2022-08-01T08:40:29;24.80;75.80
12452;DHT22;6291;48.924;12.204;2022-08-01T08:45:33;24.70;75.00
12452;DHT22;6291;48.924;12.204;2022-08-01T08:50:57;24.40;75.20
12452;DHT22;6291;48.924;12.204;2022-08-01T08:56:06;24.90;75.20
12452;DHT22;6291;48.924;12.204;2022-08-01T09:01:11;25.20;73.10
12452;DHT22;6291;48.924;12.204;2022-08-01T09:06:14;25.50;72.60
12452;DHT22;6291;48.924;12.204;2022-08-01T09:11:19;25.00;73.20
12452;DHT22;6291;48.924;12.204;2022-08-01T09:16:24;25.20;72.70
12452;DHT22;6291;48.924;12.204;2022-08-01T09:21:27;25.10;71.70
12452;DHT22;6291;48.924;12.204;2022-08-01T09:26:37;25.10;73.30
12452;DHT22;6291;48.924;12.204;2022-08-01T09:31:43;25.90;71.20
12452;DHT22;6291;48.924;12.204;2022-08-01T09:36:51;27.10;68.00
12452;DHT22;6291;48.924;12.204;2022-08-01T09:41:59;28.30;62.80
12452;DHT22;6291;48.924;12.204;2022-08-01T09:47:02;26.50;66.20
12452;DHT22;6291;48.924;12.204;2022-08-01T09:52:14;25.90;67.60
12452;DHT22;6291;48.924;12.204;2022-08-01T09:57:20;26.50;66.60
12452;DHT22;6291;48.924;12.204;2022-08-01T10:02:30;26.40;65.50
12452;DHT22;6291;48.924;12.204;2022-08-01T10:07:36;26.60;65.50
12452;DHT22;6291;48.924;12.204;2022-08-01T10:13:00;28.70;65.40
12452;DHT22;6291;48.924;12.204;2022-08-01T10:18:06;29.00;59.00
12452;DHT22;6291;48.924;12.204;2022-08-01T10:23:22;28.30;60.10
12452;DHT22;6291;48.924;12.204;2022-08-01T10:28:45;27.20;62.60
12452;DHT22;6291;48.924;12.204;2022-08-01T10:33:52;26.70;63.30
12452;DHT22;6291;48.924;12.204;2022-08-01T10:38:58;26.70;65.40
12452;DHT22;6291;48.924;12.204;2022-08-01T10:44:04;27.10;63.30
12452;DHT22;6291;48.924;12.204;2022-08-01T10:49:13;26.80;63.30
12452;DHT22;6291;48.924;12.204;2022-08-01T10:54:17;26.90;64.00
12452;DHT22;6291;48.924;12.204;2022-08-01T10:59:23;29.10;60.70
12452;DHT22;6291;48.924;12.204;2022-08-01T11:04:54;29.80;56.30
12452;DHT22;6291;48.924;12.204;2022-08-01T11:10:03;27.00;61.40
12452;DHT22;6291;48.924;12.204;2022-08-01T11:15:19;27.00;62.30
12452;DHT22;6291;48.924;12.204;2022-08-01T11:20:34;26.00;64.30
12452;DHT22;6291;48.924;12.204;2022-08-01T11:26:13;26.10;63.90
12452;DHT22;6291;48.924;12.204;2022-08-01T11:31:28;26.60;64.30
12452;DHT22;6291;48.924;12.204;2022-08-01T11:36:39;27.80;61.90
12452;DHT22;6291;48.924;12.204;2022-08-01T11:42:18;30.00;55.80
12452;DHT22;6291;48.924;12.204;2022-08-01T11:47:45;27.30;60.30
12452;DHT22;6291;48.924;12.204;2022-08-01T11:52:57;29.00;57.30
12452;DHT22;6291;48.924;12.204;2022-08-01T11:58:02;28.70;51.70
12452;DHT22;6291;48.924;12.204;2022-08-01T12:03:08;31.40;52.10
12452;DHT22;6291;48.924;12.204;2022-08-01T12:08:25;30.00;51.70
12452;DHT22;6291;48.924;12.204;2022-08-01T12:13:39;30.50;53.20
12452;DHT22;6291;48.924;12.204;2022-08-01T12:18:44;31.90;47.70
12452;DHT22;6291;48.924;12.204;2022-08-01T12:24:00;31.90;47.80
12452;DHT22;6291;48.924;12.204;2022-08-01T12:29:03;31.10;48.50
12452;DHT22;6291;48.924;12.204;2022-08-01T12:34:27;28.40;49.60
12452;DHT22;6291;48.924;12.204;2022-08-01T12:39:34;28.60;52.40
12452;DHT22;6291;48.924;12.204;2022-08-01T12:44:45;28.60;53.50
12452;DHT22;6291;48.924;12.204;2022-08-01T12:49:50;28.50;54.50
12452;DHT22;6291;48.924;12.204;2022-08-01T12:55:08;28.70;54.10
12452;DHT22;6291;48.924;12.204;2022-08-01T13:00:15;28.40;53.30
12452;DHT22;6291;48.924;12.204;2022-08-01T13:05:24;28.10;53.70
12452;DHT22;6291;48.924;12.204;2022-08-01T13:10:30;28.70;53.00
12452;DHT22;6291;48.924;12.204;2022-08-01T13:15:35;30.10;49.60
12452;DHT22;6291;48.924;12.204;2022-08-01T13:20:44;33.10;43.80
12452;DHT22;6291;48.924;12.204;2022-08-01T13:25:55;34.00;42.90
12452;DHT22;6291;48.924;12.204;2022-08-01T13:30:59;34.90;40.60
12452;DHT22;6291;48.924;12.204;2022-08-01T13:36:05;36.30;38.30
12452;DHT22;6291;48.924;12.204;2022-08-01T13:41:08;34.90;38.30
12452;DHT22;6291;48.924;12.204;2022-08-01T13:46:12;34.60;40.00
12452;DHT22;6291;48.924;12.204;2022-08-01T13:51:20;36.20;37.70
12452;DHT22;6291;48.924;12.204;2022-08-01T13:56:25;34.50;38.40
12452;DHT22;6291;48.924;12.204;2022-08-01T14:01:29;34.20;40.20
12452;DHT22;6291;48.924;12.204;2022-08-01T14:06:37;34.50;39.20
12452;DHT22;6291;48.924;12.204;2022-08-01T14:11:43;34.50;37.90
12452;DHT22;6291;48.924;12.204;2022-08-01T14:16:47;34.30;38.30
12452;DHT22;6291;48.924;12.204;2022-08-01T14:21:52;34.30;39.70
12452;DHT22;6291;48.924;12.204;2022-08-01T14:26:56;29.00;36.60
12452;DHT22;6291;48.924;12.204;2022-08-01T14:31:59;33.20;40.70
12452;DHT22;6291;48.924;12.204;2022-08-01T14:37:04;35.30;36.60
12452;DHT22;6291;48.924;12.204;2022-08-01T14:42:09;34.10;37.80
12452;DHT22;6291;48.924;12.204;2022-08-01T14:47:13;32.90;39.60
12452;DHT22;6291;48.924;12.204;2022-08-01T14:52:24;32.80;39.50
12452;DHT22;6291;48.924;12.204;2022-08-01T14:57:28;32.30;40.30
12452;DHT22;6291;48.924;12.204;2022-08-01T15:02:32;31.70;40.90
12452;DHT22;6291;48.924;12.204;2022-08-01T15:07:36;31.80;41.00
12452;DHT22;6291;48.924;12.204;2022-08-01T15:12:53;30.60;43.50
12452;DHT22;6291;48.924;12.204;2022-08-01T15:17:57;31.60;41.60
12452;DHT22;6291;48.924;12.204;2022-08-01T15:23:02;31.70;39.90
12452;DHT22;6291;48.924;12.204;2022-08-01T15:28:05;30.00;42.20
12452;DHT22;6291;48.924;12.204;2022-08-01T15:33:10;31.30;39.80
12452;DHT22;6291;48.924;12.204;2022-08-01T15:38:15;31.70;40.30
12452;DHT22;6291;48.924;12.204;2022-08-01T15:43:18;32.40;38.80
12452;DHT22;6291;48.924;12.204;2022-08-01T15:48:22;31.10;40.90
12452;DHT22;6291;48.924;12.204;2022-08-01T15:53:27;31.30;39.90
12452;DHT22;6291;48.924;12.204;2022-08-01T15:58:32;30.90;39.40
12452;DHT22;6291;48.924;12.204;2022-08-01T16:03:35;33.30;36.90
12452;DHT22;6291;48.924;12.204;2022-08-01T16:08:40;34.40;36.30
12452;DHT22;6291;48.924;12.204;2022-08-01T16:13:45;30.70;39.90
12452;DHT22;6291;48.924;12.204;2022-08-01T16:18:50;29.90;40.10
12452;DHT22;6291;48.924;12.204;2022-08-01T16:23:56;29.50;40.80
12452;DHT22;6291;48.924;12.204;2022-08-01T16:28:59;29.10;43.00
12452;DHT22;6291;48.924;12.204;2022-08-01T16:34:03;29.10;43.90
12452;DHT22;6291;48.924;12.204;2022-08-01T16:39:08;28.70;42.80
12452;DHT22;6291;48.924;12.204;2022-08-01T16:44:11;28.60;43.50
12452;DHT22;6291;48.924;12.204;2022-08-01T16:49:15;28.60;44.40
12452;DHT22;6291;48.924;12.204;2022-08-01T16:54:20;28.30;46.50
12452;DHT22;6291;48.924;12.204;2022-08-01T16:59:27;28.40;46.70
12452;DHT22;6291;48.924;12.204;2022-08-01T17:04:31;28.20;47.00
12452;DHT22;6291;48.924;12.204;2022-08-01T17:09:36;28.30;48.00
12452;DHT22;6291;48.924;12.204;2022-08-01T17:14:44;28.30;47.70
12452;DHT22;6291;48.924;12.204;2022-08-01T17:19:48;28.30;48.30
12452;DHT22;6291;48.924;12.204;2022-08-01T17:24:53;28.10;48.70
12452;DHT22;6291;48.924;12.204;2022-08-01T17:29:56;27.70;50.00
12452;DHT22;6291;48.924;12.204;2022-08-01T17:35:00;26.80;54.70
12452;DHT22;6291;48.924;12.204;2022-08-01T17:40:06;26.30;57.30
12452;DHT22;6291;48.924;12.204;2022-08-01T17:45:29;26.00;58.20
12452;DHT22;6291;48.924;12.204;2022-08-01T17:50:42;25.20;61.60
12452;DHT22;6291;48.924;12.204;2022-08-01T17:55:47;24.90;63.00
12452;DHT22;6291;48.924;12.204;2022-08-01T18:00:58;24.60;64.10
12452;DHT22;6291;48.924;12.204;2022-08-01T18:06:01;24.40;64.90
12452;DHT22;6291;48.924;12.204;2022-08-01T18:11:06;24.30;65.60
12452;DHT22;6291;48.924;12.204;2022-08-01T18:16:10;24.20;66.00
12452;DHT22;6291;48.924;12.204;2022-08-01T18:21:14;24.00;66.60
12452;DHT22;6291;48.924;12.204;2022-08-01T18:26:19;23.90;67.00
12452;DHT22;6291;48.924;12.204;2022-08-01T18:31:23;23.80;67.00
12452;DHT22;6291;48.924;12.204;2022-08-01T18:36:26;23.80;67.30
12452;DHT22;6291;48.924;12.204;2022-08-01T18:41:36;23.70;67.70
12452;DHT22;6291;48.924;12.204;2022-08-01T18:46:40;23.60;68.20
12452;DHT22;6291;48.924;12.204;2022-08-01T18:51:43;23.40;68.70
12452;DHT22;6291;48.924;12.204;2022-08-01T18:56:49;23.30;69.40
12452;DHT22;6291;48.924;12.204;2022-08-01T19:01:53;23.20;69.40
12452;DHT22;6291;48.924;12.204;2022-08-01T19:06:56;23.20;69.60
12452;DHT22;6291;48.924;12.204;2022-08-01T19:12:01;23.10;69.90
12452;DHT22;6291;48.924;12.204;2022-08-01T19:17:05;23.10;70.10
12452;DHT22;6291;48.924;12.204;2022-08-01T19:22:08;23.10;69.90
12452;DHT22;6291;48.924;12.204;2022-08-01T19:27:15;23.20;69.90
12452;DHT22;6291;48.924;12.204;2022-08-01T19:32:20;23.10;70.30
12452;DHT22;6291;48.924;12.204;2022-08-01T19:37:23;23.00;70.40
12452;DHT22;6291;48.924;12.204;2022-08-01T19:42:29;23.00;70.20
12452;DHT22;6291;48.924;12.204;2022-08-01T19:47:33;22.80;70.70
12452;DHT22;6291;48.924;12.204;2022-08-01T19:52:56;22.80;71.20
12452;DHT22;6291;48.924;12.204;2022-08-01T19:58:06;22.90;70.80
12452;DHT22;6291;48.924;12.204;2022-08-01T20:03:28;22.80;70.90
12452;DHT22;6291;48.924;12.204;2022-08-01T20:08:34;22.70;71.10
12452;DHT22;6291;48.924;12.204;2022-08-01T20:13:39;22.70;71.30
12452;DHT22;6291;48.924;12.204;2022-08-01T20:18:43;22.80;71.20
12452;DHT22;6291;48.924;12.204;2022-08-01T20:23:49;22.90;71.20
12452;DHT22;6291;48.924;12.204;2022-08-01T20:29:04;22.90;71.60
12452;DHT22;6291;48.924;12.204;2022-08-01T20:34:09;22.90;71.70
12452;DHT22;6291;48.924;12.204;2022-08-01T20:39:17;22.80;72.10
12452;DHT22;6291;48.924;12.204;2022-08-01T20:44:25;22.80;72.30
12452;DHT22;6291;48.924;12.204;2022-08-01T20:49:35;22.70;73.00
12452;DHT22;6291;48.924;12.204;2022-08-01T20:54:40;22.60;73.60
12452;DHT22;6291;48.924;12.204;2022-08-01T20:59:49;22.70;74.10
12452;DHT22;6291;48.924;12.204;2022-08-01T21:05:03;22.70;73.90
12452;DHT22;6291;48.924;12.204;2022-08-01T21:10:09;22.60;74.40
12452;DHT22;6291;48.924;12.204;2022-08-01T21:15:23;22.50;74.50
12452;DHT22;6291;48.924;12.204;2022-08-01T21:20:30;22.40;74.90
12452;DHT22;6291;48.924;12.204;2022-08-01T21:25:34;22.40;75.00
12452;DHT22;6291;48.924;12.204;2022-08-01T21:30:40;22.30;75.80
12452;DHT22;6291;48.924;12.204;2022-08-01T21:35:57;22.10;76.50
12452;DHT22;6291;48.924;12.204;2022-08-01T21:41:07;21.90;77.80
12452;DHT22;6291;48.924;12.204;2022-08-01T21:46:14;21.50;79.40
12452;DHT22;6291;48.924;12.204;2022-08-01T21:51:27;21.40;79.90
12452;DHT22;6291;48.924;12.204;2022-08-01T21:56:38;21.40;80.30
12452;DHT22;6291;48.924;12.204;2022-08-01T22:01:50;21.50;80.50
12452;DHT22;6291;48.924;12.204;2022-08-01T22:06:56;21.60;80.30
12452;DHT22;6291;48.924;12.204;2022-08-01T22:12:06;21.60;80.10
12452;DHT22;6291;48.924;12.204;2022-08-01T22:17:13;21.60;80.00
12452;DHT22;6291;48.924;12.204;2022-08-01T22:22:20;21.60;80.00
12452;DHT22;6291;48.924;12.204;2022-08-01T22:27:44;21.40;81.30
12452;DHT22;6291;48.924;12.204;2022-08-01T22:33:09;21.10;82.70
12452;DHT22;6291;48.924;12.204;2022-08-01T22:38:19;21.00;83.90
12452;DHT22;6291;48.924;12.204;2022-08-01T22:43:26;20.90;84.70
12452;DHT22;6291;48.924;12.204;2022-08-01T22:48:38;21.10;85.50
12452;DHT22;6291;48.924;12.204;2022-08-01T22:53:49;21.10;84.60
12452;DHT22;6291;48.924;12.204;2022-08-01T22:58:57;21.10;85.30
12452;DHT22;6291;48.924;12.204;2022-08-01T23:04:02;21.00;86.00
12452;DHT22;6291;48.924;12.204;2022-08-01T23:09:07;21.10;86.80
12452;DHT22;6291;48.924;12.204;2022-08-01T23:14:10;21.20;86.20
12452;DHT22;6291;48.924;12.204;2022-08-01T23:19:16;21.10;87.10
12452;DHT22;6291;48.924;12.204;2022-08-01T23:24:20;20.30;94.50
12452;DHT22;6291;48.924;12.204;2022-08-01T23:29:24;20.10;99.90
12452;DHT22;6291;48.924;12.204;2022-08-01T23:34:30;20.00;99.90
12452;DHT22;6291;48.924;12.204;2022-08-01T23:39:33;20.00;99.90
12452;DHT22;6291;48.924;12.204;2022-08-01T23:44:37;20.00;99.90
12452;DHT22;6291;48.924;12.204;2022-08-01T23:49:42;20.00;99.90
12452;DHT22;6291;48.924;12.204;2022-08-01T23:54:54;19.90;99.90
